Time;durP1;ratioP1;P1;durP2;ratioP2;P2;SDS_P1;SDS_P2;PMS_P1;PMS_P2;Temp;Humidity;BMP_temperature;BMP_pressure;BME280_temperature;BME280_humidity;BME280_pressure;Samples;Min_cycle;Max_cycle;Signal;HPM_P1;HPM_P2
2024/03/27 00:00:57;;;;;;;3.90;3.50;;;16.90;45.90;;;;;;5004175;28;20194;-57
2024/03/27 00:03:22;;;;;;;5.43;3.77;;;16.70;46.30;;;;;;5002772;28;20444;-59
2024/03/27 00:05:48;;;;;;;4.30;3.90;;;16.70;46.50;;;;;;5003600;28;20186;-59
2024/03/27 00:08:14;;;;;;;5.80;3.70;;;16.40;46.70;;;;;;5005697;28;20220;-58
2024/03/27 00:10:40;;;;;;;3.60;3.30;;;16.00;47.50;;;;;;5007671;28;20190;-58
2024/03/27 00:13:06;;;;;;;5.63;3.10;;;16.20;48.00;;;;;;5005165;28;20988;-58
2024/03/27 00:15:31;;;;;;;3.47;3.17;;;16.30;47.80;;;;;;5003408;28;20186;-59
2024/03/27 00:17:57;;;;;;;3.10;2.83;;;16.40;47.30;;;;;;5005768;28;20814;-59
2024/03/27 00:20:22;;;;;;;3.70;3.20;;;16.30;46.80;;;;;;5009163;28;20178;-58
2024/03/27 00:22:48;;;;;;;3.47;3.17;;;16.40;47.30;;;;;;5010104;28;20181;-58
2024/03/27 00:25:14;;;;;;;5.20;3.90;;;16.60;47.10;;;;;;5005391;28;20192;-58
2024/03/27 00:27:40;;;;;;;4.53;3.70;;;16.80;46.70;;;;;;5004371;28;20748;-59
2024/03/27 00:30:09;;;;;;;5.70;3.13;;;16.80;46.00;;;;;;5001964;28;20445;-58
2024/03/27 00:32:35;;;;;;;3.80;3.43;;;17.00;45.90;;;;;;5003245;28;20197;-60
2024/03/27 00:35:01;;;;;;;3.80;3.13;;;17.10;46.10;;;;;;5012057;28;20440;-59
2024/03/27 00:37:27;;;;;;;4.40;3.57;;;17.20;45.80;;;;;;5016795;28;20451;-58
2024/03/27 00:39:53;;;;;;;4.90;3.93;;;17.10;45.50;;;;;;5007565;28;20948;-59
2024/03/27 00:42:18;;;;;;;4.43;2.87;;;16.90;46.00;;;;;;5002227;28;20210;-59
2024/03/27 00:44:44;;;;;;;3.20;2.87;;;16.90;46.20;;;;;;5011035;28;20193;-58
2024/03/27 00:47:10;;;;;;;3.63;3.33;;;17.00;46.20;;;;;;5003327;28;20220;-60
2024/03/27 00:49:35;;;;;;;4.33;3.20;;;17.10;45.60;;;;;;5002965;28;20198;-56
2024/03/27 00:52:02;;;;;;;7.57;3.20;;;16.80;45.80;;;;;;5002286;28;20827;-58
2024/03/27 00:54:27;;;;;;;4.70;3.30;;;16.60;46.70;;;;;;5002111;28;20217;-59
2024/03/27 00:56:53;;;;;;;4.30;3.23;;;16.80;46.80;;;;;;5003056;28;20464;-58
2024/03/27 00:59:18;;;;;;;4.20;3.30;;;16.80;46.30;;;;;;5003731;28;20191;-60
2024/03/27 01:01:44;;;;;;;3.20;2.90;;;16.70;46.50;;;;;;5000939;28;20213;-57
2024/03/27 01:04:09;;;;;;;3.00;2.60;;;16.70;46.40;;;;;;5008120;28;20277;-58
2024/03/27 01:06:35;;;;;;;3.57;3.27;;;16.70;46.70;;;;;;5001834;28;20212;-59
2024/03/27 01:09:00;;;;;;;4.63;3.40;;;16.80;46.50;;;;;;5007595;28;20229;-59
2024/03/27 01:11:26;;;;;;;4.10;3.10;;;17.00;46.40;;;;;;5002751;28;20193;-59
2024/03/27 01:13:52;;;;;;;4.47;3.40;;;17.10;45.80;;;;;;5009349;28;20271;-56
2024/03/27 01:16:18;;;;;;;4.60;3.20;;;17.10;45.80;;;;;;5009355;28;20177;-60
2024/03/27 01:18:45;;;;;;;4.47;3.47;;;17.00;45.80;;;;;;5008084;28;20697;-57
2024/03/27 01:21:11;;;;;;;4.00;3.70;;;16.70;46.00;;;;;;5008372;28;20432;-59
2024/03/27 01:23:37;;;;;;;3.90;3.23;;;16.40;46.40;;;;;;5009489;28;20566;-58
2024/03/27 01:26:05;;;;;;;3.93;3.03;;;16.30;46.90;;;;;;5012003;28;20512;-59
2024/03/27 01:28:31;;;;;;;4.90;3.63;;;16.40;47.10;;;;;;5008977;28;20185;-59
2024/03/27 01:30:57;;;;;;;3.90;3.03;;;16.40;47.10;;;;;;5008737;28;21010;-59
2024/03/27 01:33:22;;;;;;;5.40;3.23;;;16.50;47.00;;;;;;5009439;28;20755;-58
2024/03/27 01:35:49;;;;;;;9.47;3.77;;;16.70;47.00;;;;;;5008873;28;20528;-57
2024/03/27 01:38:15;;;;;;;3.50;3.00;;;16.80;46.90;;;;;;5015013;28;20574;-58
2024/03/27 01:40:41;;;;;;;3.90;3.50;;;17.00;46.20;;;;;;5008529;28;20420;-57
2024/03/27 01:43:06;;;;;;;4.27;3.47;;;16.90;46.10;;;;;;5009121;28;20595;-55
2024/03/27 01:45:32;;;;;;;4.43;3.17;;;16.70;46.20;;;;;;5005814;28;20549;-58
2024/03/27 01:47:57;;;;;;;3.43;3.13;;;16.60;47.40;;;;;;5001363;28;20313;-59
2024/03/27 01:50:28;;;;;;;3.27;2.90;;;16.70;46.90;;;;;;5002676;28;20197;-59
2024/03/27 01:52:56;;;;;;;3.90;3.57;;;16.90;46.40;;;;;;5010833;28;20280;-59
2024/03/27 01:55:21;;;;;;;4.50;3.17;;;16.90;46.40;;;;;;5001647;28;20442;-58
2024/03/27 01:57:48;;;;;;;6.33;3.63;;;16.90;46.50;;;;;;5004631;28;20457;-59
2024/03/27 02:00:14;;;;;;;6.23;3.70;;;17.00;46.10;;;;;;5004682;28;20285;-59
2024/03/27 02:02:40;;;;;;;3.10;2.80;;;17.10;45.50;;;;;;5012200;28;20425;-59
2024/03/27 02:05:07;;;;;;;6.97;3.47;;;17.10;46.10;;;;;;5005211;28;20448;-59
2024/03/27 02:07:33;;;;;;;5.70;3.17;;;17.00;46.20;;;;;;5007314;28;20461;-58
2024/03/27 02:10:00;;;;;;;6.00;3.00;;;17.10;45.80;;;;;;5004841;28;20794;-57
2024/03/27 02:12:26;;;;;;;4.00;3.50;;;17.20;45.60;;;;;;5006041;28;20186;-58
2024/03/27 02:14:52;;;;;;;2.93;2.60;;;17.30;45.70;;;;;;5010501;28;20491;-57
2024/03/27 02:17:17;;;;;;;3.43;3.13;;;17.40;45.40;;;;;;5006083;28;20198;-58
2024/03/27 02:19:43;;;;;;;3.40;3.10;;;17.30;45.40;;;;;;5004688;28;20222;-58
2024/03/27 02:22:09;;;;;;;4.30;3.60;;;16.90;45.70;;;;;;5006531;28;20272;-58
2024/03/27 02:24:47;;;;;;;3.93;3.63;;;16.90;47.30;;;;;;5007309;28;20216;-59
2024/03/27 02:27:13;;;;;;;3.77;3.40;;;17.00;46.50;;;;;;5008097;28;20255;-58
2024/03/27 02:29:38;;;;;;;3.90;3.60;;;17.00;46.50;;;;;;5003537;28;20444;-59
2024/03/27 02:32:04;;;;;;;3.57;3.27;;;17.10;46.30;;;;;;5004781;28;20290;-59
2024/03/27 02:34:30;;;;;;;4.27;3.63;;;17.20;46.00;;;;;;5014279;28;20257;-58
2024/03/27 02:36:55;;;;;;;5.30;3.77;;;17.20;45.90;;;;;;5006451;28;20221;-58
2024/03/27 02:39:21;;;;;;;4.57;4.10;;;17.10;46.00;;;;;;5010549;28;20289;-57
2024/03/27 02:41:46;;;;;;;4.70;3.93;;;17.10;46.00;;;;;;5002462;28;20667;-59
2024/03/27 02:44:12;;;;;;;4.20;3.40;;;17.10;45.90;;;;;;5005207;28;20204;-59
2024/03/27 02:46:37;;;;;;;4.67;3.50;;;17.10;45.70;;;;;;5004552;28;20340;-58
2024/03/27 02:49:03;;;;;;;4.17;3.83;;;17.30;45.60;;;;;;5003953;28;20198;-57
2024/03/27 02:51:30;;;;;;;4.90;3.40;;;17.30;45.30;;;;;;5005164;28;20182;-58
2024/03/27 02:53:56;;;;;;;5.70;4.20;;;17.40;45.20;;;;;;5005118;28;21102;-59
2024/03/27 02:56:22;;;;;;;3.13;2.93;;;17.50;45.20;;;;;;5004169;28;20448;-58
2024/03/27 02:58:47;;;;;;;6.60;4.20;;;17.60;45.00;;;;;;5004985;28;20182;-57
2024/03/27 03:01:14;;;;;;;3.73;3.37;;;17.60;44.80;;;;;;5003788;28;20208;-58
2024/03/27 03:03:39;;;;;;;4.87;3.73;;;17.60;44.40;;;;;;5002216;28;20190;-56
2024/03/27 03:06:05;;;;;;;3.60;3.30;;;17.60;44.50;;;;;;5002339;28;21054;-56
2024/03/27 03:08:31;;;;;;;4.00;3.67;;;17.60;44.50;;;;;;5002870;28;20182;-59
2024/03/27 03:10:56;;;;;;;4.07;3.13;;;17.60;44.40;;;;;;5003804;28;20190;-59
2024/03/27 03:13:23;;;;;;;3.80;3.40;;;17.50;44.50;;;;;;5007554;28;20226;-59
2024/03/27 03:15:49;;;;;;;6.93;3.60;;;17.50;44.40;;;;;;5012596;28;20467;-59
2024/03/27 03:18:15;;;;;;;3.40;3.20;;;17.50;44.20;;;;;;5009956;28;20210;-57
2024/03/27 03:20:40;;;;;;;3.37;3.13;;;17.40;44.20;;;;;;5009800;28;20182;-58
2024/03/27 03:23:06;;;;;;;4.73;2.90;;;16.90;44.90;;;;;;5010066;28;20532;-58
2024/03/27 03:25:31;;;;;;;6.57;3.10;;;16.60;46.30;;;;;;5008790;28;20178;-58
2024/03/27 03:27:57;;;;;;;3.70;2.90;;;16.50;46.70;;;;;;5009888;28;20213;-59
2024/03/27 03:30:23;;;;;;;3.20;2.60;;;16.60;47.30;;;;;;5011501;28;20181;-59
2024/03/27 03:32:48;;;;;;;3.83;3.53;;;16.70;47.30;;;;;;5009973;28;20181;-60
2024/03/27 03:35:14;;;;;;;5.97;4.13;;;16.80;46.80;;;;;;5009197;28;20196;-58
2024/03/27 03:37:40;;;;;;;3.87;3.40;;;17.00;46.10;;;;;;5010644;28;20635;-59
2024/03/27 03:40:09;;;;;;;3.97;3.57;;;17.10;45.60;;;;;;5009291;28;20428;-58
2024/03/27 03:42:34;;;;;;;3.40;2.97;;;17.10;45.70;;;;;;5009830;28;20182;-59
2024/03/27 03:45:01;;;;;;;3.50;3.20;;;16.90;46.10;;;;;;5009408;28;20483;-57
2024/03/27 03:47:27;;;;;;;4.20;3.27;;;16.80;46.60;;;;;;5009957;28;20747;-59
2024/03/27 03:49:52;;;;;;;4.53;3.23;;;16.70;47.10;;;;;;5010867;28;20525;-59
2024/03/27 03:52:18;;;;;;;4.50;3.27;;;16.80;47.00;;;;;;5008762;28;20665;-58
2024/03/27 03:54:44;;;;;;;3.30;3.00;;;16.70;46.90;;;;;;5009498;28;20739;-59
2024/03/27 03:57:09;;;;;;;5.73;4.40;;;16.60;47.10;;;;;;5009074;28;20202;-59
2024/03/27 03:59:35;;;;;;;3.70;3.33;;;16.70;47.10;;;;;;5007126;28;20198;-60
2024/03/27 04:02:00;;;;;;;3.87;3.07;;;16.60;47.40;;;;;;5008822;28;20186;-59
2024/03/27 04:04:26;;;;;;;3.57;3.27;;;16.60;47.00;;;;;;5009652;28;20267;-59
2024/03/27 04:06:51;;;;;;;3.83;3.43;;;16.40;47.10;;;;;;5008794;28;20283;-59
2024/03/27 04:09:17;;;;;;;3.87;3.47;;;16.40;47.20;;;;;;5008173;28;20177;-58
2024/03/27 04:11:43;;;;;;;7.00;4.37;;;16.40;47.50;;;;;;5008219;28;20182;-58
2024/03/27 04:14:08;;;;;;;3.67;3.37;;;16.30;47.30;;;;;;5008802;28;20587;-59
2024/03/27 04:16:34;;;;;;;4.77;3.73;;;16.40;47.20;;;;;;5014532;28;20205;-59
2024/03/27 04:19:00;;;;;;;5.90;3.73;;;16.50;47.30;;;;;;5004035;28;20562;-58
2024/03/27 04:21:25;;;;;;;4.67;3.60;;;16.50;46.90;;;;;;5001565;28;20437;-58
2024/03/27 04:23:51;;;;;;;4.37;3.47;;;16.50;46.40;;;;;;5000980;28;20244;-58
2024/03/27 04:26:17;;;;;;;3.90;3.60;;;16.50;46.60;;;;;;5004496;28;20288;-59
2024/03/27 04:28:42;;;;;;;3.67;3.37;;;16.50;46.70;;;;;;5004721;28;20559;-57
2024/03/27 04:31:08;;;;;;;2.93;2.70;;;16.70;46.70;;;;;;5011292;28;20178;-56
2024/03/27 04:33:34;;;;;;;3.37;3.07;;;16.70;46.10;;;;;;5005499;28;20217;-59
2024/03/27 04:36:00;;;;;;;4.80;3.10;;;16.70;45.80;;;;;;5009333;28;20452;-59
2024/03/27 04:38:26;;;;;;;5.83;3.13;;;16.60;45.70;;;;;;5007365;28;20436;-60
2024/03/27 04:40:52;;;;;;;4.90;4.10;;;16.60;45.90;;;;;;5007543;28;20449;-59
2024/03/27 04:43:17;;;;;;;3.30;3.00;;;16.60;46.20;;;;;;5008728;28;20186;-58
2024/03/27 04:45:43;;;;;;;3.50;3.20;;;16.60;46.60;;;;;;5005597;28;20216;-57
2024/03/27 04:48:08;;;;;;;3.97;3.20;;;16.60;46.50;;;;;;5004643;28;20241;-57
2024/03/27 04:50:35;;;;;;;6.27;3.53;;;16.60;46.50;;;;;;5007371;28;20750;-59
2024/03/27 04:53:01;;;;;;;4.20;3.80;;;16.70;46.50;;;;;;5004521;28;20229;-58
2024/03/27 04:55:26;;;;;;;2.60;2.40;;;16.70;46.10;;;;;;5005565;28;20461;-58
2024/03/27 04:57:52;;;;;;;4.77;3.23;;;16.60;46.00;;;;;;5002018;28;20206;-59
2024/03/27 05:00:18;;;;;;;3.77;3.27;;;16.60;46.00;;;;;;5001300;28;20218;-58
2024/03/27 05:02:43;;;;;;;3.83;3.43;;;16.60;46.00;;;;;;5001496;28;20190;-58
2024/03/27 05:05:09;;;;;;;4.63;3.33;;;16.50;45.90;;;;;;5000108;28;20189;-57
2024/03/27 05:07:35;;;;;;;4.43;3.47;;;16.40;46.10;;;;;;5002913;28;20581;-59
2024/03/27 05:10:01;;;;;;;3.20;2.90;;;16.20;46.20;;;;;;5004174;28;20441;-59
2024/03/27 05:12:27;;;;;;;5.50;3.90;;;16.20;46.40;;;;;;5003610;28;20247;-55
2024/03/27 05:14:52;;;;;;;5.30;3.43;;;16.20;46.40;;;;;;5008578;28;20221;-58
2024/03/27 05:17:18;;;;;;;4.10;3.47;;;16.10;46.50;;;;;;5009066;28;20676;-59
2024/03/27 05:19:44;;;;;;;8.40;4.13;;;16.10;47.00;;;;;;5007900;28;20181;-59
2024/03/27 05:22:15;;;;;;;4.80;4.30;;;16.10;47.20;;;;;;5014116;28;20185;-57
2024/03/27 05:24:41;;;;;;;7.03;5.43;;;16.10;47.20;;;;;;5005951;28;20416;-58
2024/03/27 05:27:08;;;;;;;5.77;5.13;;;16.10;47.00;;;;;;5013746;28;20452;-57
2024/03/27 05:29:33;;;;;;;181.67;80.87;;;16.10;46.90;;;;;;5014320;28;20428;-58
2024/03/27 05:31:59;;;;;;;189.80;89.63;;;16.10;46.70;;;;;;5011367;28;20432;-56
2024/03/27 05:34:25;;;;;;;255.70;116.20;;;16.10;46.60;;;;;;5012458;28;20629;-59
2024/03/27 05:36:51;;;;;;;32.40;18.13;;;16.10;46.70;;;;;;5012706;28;20225;-57
2024/03/27 05:39:16;;;;;;;23.40;13.60;;;16.10;46.70;;;;;;5011216;28;20453;-59
2024/03/27 05:41:45;;;;;;;20.57;9.37;;;16.10;46.80;;;;;;5013044;28;20186;-57
2024/03/27 05:44:10;;;;;;;5.90;4.90;;;16.00;47.00;;;;;;5012408;28;20193;-56
2024/03/27 05:46:37;;;;;;;7.23;4.13;;;16.10;47.40;;;;;;5012468;28;20483;-59
2024/03/27 05:49:03;;;;;;;4.97;3.63;;;16.10;47.20;;;;;;5010470;28;20642;-55
2024/03/27 05:51:30;;;;;;;8.57;5.70;;;16.10;46.90;;;;;;5012084;28;20939;-58
2024/03/27 05:53:55;;;;;;;6.90;6.20;;;16.20;47.00;;;;;;5008356;28;20913;-56
2024/03/27 05:56:22;;;;;;;5.17;4.67;;;16.20;47.10;;;;;;5005522;28;20473;-57
2024/03/27 05:58:48;;;;;;;6.90;4.80;;;16.20;47.20;;;;;;5010553;28;20190;-58
2024/03/27 06:01:14;;;;;;;5.33;4.10;;;16.20;47.50;;;;;;5004116;28;20582;-57
2024/03/27 06:03:40;;;;;;;4.87;4.00;;;16.20;47.20;;;;;;5003808;28;20532;-55
2024/03/27 06:06:06;;;;;;;5.73;4.53;;;16.20;47.00;;;;;;5003862;28;20205;-56
2024/03/27 06:08:31;;;;;;;6.70;4.67;;;16.10;47.00;;;;;;5003116;28;20182;-56
2024/03/27 06:10:57;;;;;;;4.67;4.17;;;16.10;47.20;;;;;;5003673;28;20196;-58
2024/03/27 06:13:23;;;;;;;5.07;4.33;;;16.20;47.20;;;;;;5004316;28;20232;-56
2024/03/27 06:15:49;;;;;;;5.93;4.27;;;16.30;47.00;;;;;;5005052;28;20224;-58
2024/03/27 06:18:14;;;;;;;5.63;3.90;;;16.30;47.10;;;;;;5003872;28;20220;-59
2024/03/27 06:20:41;;;;;;;6.43;4.10;;;16.30;46.90;;;;;;5004588;28;20444;-57
2024/03/27 06:23:07;;;;;;;5.27;4.30;;;16.30;46.90;;;;;;5004270;28;20677;-55
2024/03/27 06:25:33;;;;;;;4.90;4.00;;;16.20;47.00;;;;;;5004069;28;20488;-60
2024/03/27 06:27:58;;;;;;;5.73;4.57;;;16.20;47.20;;;;;;5003201;28;20277;-58
2024/03/27 06:30:24;;;;;;;8.07;5.50;;;16.10;47.50;;;;;;5003872;28;20186;-56
2024/03/27 06:32:49;;;;;;;6.43;5.30;;;16.10;47.70;;;;;;5005866;28;20189;-59
2024/03/27 06:35:16;;;;;;;8.33;5.23;;;16.00;47.60;;;;;;5013713;28;20175;-59
2024/03/27 06:37:41;;;;;;;7.00;5.57;;;16.00;47.70;;;;;;5010661;28;20256;-59
2024/03/27 06:40:09;;;;;;;5.00;4.50;;;15.90;47.80;;;;;;5014485;28;20844;-55
2024/03/27 06:42:35;;;;;;;4.90;4.20;;;15.90;48.00;;;;;;5010453;28;20216;-59
2024/03/27 06:45:05;;;;;;;9.33;4.37;;;15.80;48.30;;;;;;5005668;28;20948;-56
2024/03/27 06:47:32;;;;;;;12.67;5.43;;;15.70;48.60;;;;;;5008724;28;20649;-58
2024/03/27 06:49:58;;;;;;;6.90;4.93;;;15.60;48.80;;;;;;5014987;28;20437;-59
2024/03/27 06:52:23;;;;;;;6.70;3.80;;;15.60;49.10;;;;;;5014042;28;20860;-57
2024/03/27 06:54:50;;;;;;;5.40;4.13;;;15.50;49.10;;;;;;5014526;28;20301;-55
2024/03/27 06:57:16;;;;;;;5.17;4.33;;;15.50;49.10;;;;;;5012609;28;20584;-58
2024/03/27 06:59:42;;;;;;;6.60;3.80;;;15.50;49.20;;;;;;5010253;28;20432;-56
2024/03/27 07:02:07;;;;;;;4.80;4.23;;;15.50;49.40;;;;;;5012935;28;20186;-58
2024/03/27 07:04:33;;;;;;;7.07;4.00;;;15.50;49.50;;;;;;5010061;28;20205;-59
2024/03/27 07:06:58;;;;;;;4.40;3.90;;;15.50;49.50;;;;;;5014125;28;20264;-58
2024/03/27 07:09:25;;;;;;;4.27;3.87;;;15.50;49.50;;;;;;5015329;28;20250;-59
2024/03/27 07:11:51;;;;;;;6.80;4.23;;;15.50;49.50;;;;;;5014780;28;20182;-56
2024/03/27 07:14:16;;;;;;;5.20;3.90;;;15.40;49.80;;;;;;5016130;28;20475;-56
2024/03/27 07:16:43;;;;;;;5.03;4.30;;;15.30;50.50;;;;;;5015070;28;20202;-59
2024/03/27 07:19:09;;;;;;;6.20;4.47;;;15.20;50.80;;;;;;5012030;28;20249;-57
2024/03/27 07:21:35;;;;;;;5.20;4.60;;;15.30;51.00;;;;;;5011943;28;20541;-55
2024/03/27 07:24:00;;;;;;;9.87;4.00;;;15.30;50.70;;;;;;5013413;28;20895;-59
2024/03/27 07:26:26;;;;;;;5.80;4.90;;;15.40;50.50;;;;;;5011702;28;20214;-58
2024/03/27 07:28:51;;;;;;;6.03;4.63;;;15.40;50.40;;;;;;5008519;28;20209;-56
2024/03/27 07:31:17;;;;;;;6.53;4.07;;;15.50;50.40;;;;;;5012889;28;20190;-58
2024/03/27 07:33:43;;;;;;;5.80;3.80;;;15.50;50.20;;;;;;5011587;28;20242;-57
2024/03/27 07:36:08;;;;;;;6.20;5.20;;;15.60;50.20;;;;;;5014216;28;20279;-58
2024/03/27 07:38:34;;;;;;;5.37;4.70;;;15.60;50.20;;;;;;5014119;28;20182;-57
2024/03/27 07:41:00;;;;;;;7.80;4.13;;;15.60;50.10;;;;;;5007373;28;20178;-57
2024/03/27 07:43:25;;;;;;;4.50;4.00;;;15.70;50.10;;;;;;5015536;28;20184;-58
2024/03/27 07:45:51;;;;;;;6.70;5.00;;;15.70;50.00;;;;;;5013695;28;20182;-58
2024/03/27 07:48:16;;;;;;;5.50;4.10;;;15.80;49.90;;;;;;5017673;28;20236;-54
2024/03/27 07:50:42;;;;;;;5.90;4.70;;;15.90;49.70;;;;;;5013121;28;20181;-59
2024/03/27 07:53:08;;;;;;;5.63;4.60;;;16.00;49.70;;;;;;5011922;28;20214;-58
2024/03/27 07:55:33;;;;;;;6.60;4.30;;;16.10;49.50;;;;;;5015335;28;20182;-56
2024/03/27 07:57:59;;;;;;;5.83;4.90;;;16.10;49.50;;;;;;5014175;28;20214;-58
2024/03/27 08:00:24;;;;;;;5.40;4.50;;;16.20;49.70;;;;;;5013534;28;20186;-59
2024/03/27 08:02:51;;;;;;;4.93;4.43;;;16.30;49.90;;;;;;5011319;28;20194;-57
2024/03/27 08:05:17;;;;;;;5.93;4.87;;;16.40;50.20;;;;;;5015820;28;20190;-58
2024/03/27 08:07:43;;;;;;;4.77;3.90;;;16.60;50.20;;;;;;5014858;28;20429;-58
2024/03/27 08:10:09;;;;;;;10.03;4.50;;;16.80;48.90;;;;;;5014060;28;20178;-58
2024/03/27 08:12:34;;;;;;;6.50;5.23;;;16.90;48.90;;;;;;5013512;28;20182;-59
2024/03/27 08:15:00;;;;;;;7.40;5.33;;;17.10;48.60;;;;;;5013277;28;20475;-58
2024/03/27 08:17:25;;;;;;;8.70;6.17;;;17.10;48.60;;;;;;5011203;28;20228;-58
2024/03/27 08:19:51;;;;;;;6.97;5.97;;;17.20;48.90;;;;;;5010209;28;20265;-59
2024/03/27 08:22:17;;;;;;;10.30;6.73;;;17.40;48.30;;;;;;5018011;28;20177;-59
2024/03/27 08:24:42;;;;;;;6.90;6.20;;;17.60;47.90;;;;;;5012631;28;20182;-58
2024/03/27 08:27:08;;;;;;;6.67;5.97;;;17.70;47.50;;;;;;5012853;28;20264;-60
2024/03/27 08:29:34;;;;;;;7.67;5.77;;;17.80;47.10;;;;;;5014521;28;20192;-59
2024/03/27 08:32:00;;;;;;;6.00;5.33;;;18.00;46.90;;;;;;5013691;28;20201;-60
2024/03/27 08:34:30;;;;;;;7.63;6.83;;;18.20;46.90;;;;;;5013799;28;20467;-60
2024/03/27 08:36:55;;;;;;;6.27;5.70;;;18.40;46.40;;;;;;5012150;28;20460;-60
2024/03/27 08:39:21;;;;;;;6.73;6.13;;;18.50;46.10;;;;;;5017190;28;20927;-60
2024/03/27 08:41:48;;;;;;;6.70;6.10;;;18.60;46.60;;;;;;5016315;28;20182;-59
2024/03/27 08:44:17;;;;;;;8.17;6.50;;;18.70;46.00;;;;;;5016470;28;20193;-58
2024/03/27 08:46:43;;;;;;;6.77;6.17;;;18.80;46.00;;;;;;5014396;28;20852;-60
2024/03/27 08:49:15;;;;;;;7.50;6.80;;;18.70;45.50;;;;;;5009331;28;20456;-60
2024/03/27 08:51:42;;;;;;;12.70;6.90;;;18.70;45.40;;;;;;5010910;28;20435;-59
2024/03/27 08:54:09;;;;;;;8.20;7.40;;;18.70;46.50;;;;;;5015702;28;20627;-60
2024/03/27 08:56:35;;;;;;;8.53;6.37;;;18.80;46.10;;;;;;5016018;28;20968;-59
2024/03/27 08:59:01;;;;;;;7.57;6.50;;;18.90;46.00;;;;;;5011107;28;20452;-59
2024/03/27 09:01:27;;;;;;;8.90;7.10;;;18.90;45.80;;;;;;5013086;28;20441;-59
2024/03/27 09:03:53;;;;;;;8.17;6.53;;;19.00;45.60;;;;;;5015003;28;20912;-59
2024/03/27 09:06:18;;;;;;;9.30;6.20;;;19.00;45.40;;;;;;5017949;28;20699;-59
2024/03/27 09:08:44;;;;;;;8.67;7.27;;;19.00;45.90;;;;;;5011774;28;20178;-59
2024/03/27 09:11:11;;;;;;;11.30;6.97;;;19.10;46.00;;;;;;5004117;28;20198;-59
2024/03/27 09:13:36;;;;;;;8.57;6.70;;;19.10;45.10;;;;;;5005869;28;20340;-57
2024/03/27 09:16:03;;;;;;;7.03;6.13;;;19.10;45.90;;;;;;5013683;28;20532;-59
2024/03/27 09:18:29;;;;;;;7.07;6.37;;;19.10;45.90;;;;;;5009848;28;20182;-59
2024/03/27 09:20:57;;;;;;;6.87;6.20;;;19.10;45.40;;;;;;5014067;28;20432;-59
2024/03/27 09:23:24;;;;;;;9.70;6.97;;;19.20;45.40;;;;;;5016486;28;20486;-60
2024/03/27 09:26:00;;;;;;;7.87;5.90;;;19.30;45.60;;;;;;5014363;28;20445;-60
2024/03/27 09:28:26;;;;;;;6.90;6.30;;;19.30;45.50;;;;;;5012578;28;20950;-59
2024/03/27 09:30:52;;;;;;;7.50;6.20;;;19.30;45.60;;;;;;5011522;28;20437;-59
2024/03/27 09:33:18;;;;;;;6.80;6.17;;;19.30;45.80;;;;;;5017263;28;20220;-58
2024/03/27 09:35:46;;;;;;;9.73;7.57;;;19.40;45.60;;;;;;5013135;28;20417;-59
2024/03/27 09:38:12;;;;;;;7.40;6.57;;;19.50;45.70;;;;;;5011875;28;20209;-59
2024/03/27 09:40:46;;;;;;;7.37;6.00;;;19.70;45.70;;;;;;5007374;28;20473;-59
2024/03/27 09:43:13;;;;;;;8.63;6.40;;;19.50;45.10;;;;;;5014701;28;20513;-60
2024/03/27 09:45:40;;;;;;;7.93;6.13;;;19.50;45.60;;;;;;5006684;28;20433;-58
2024/03/27 09:48:06;;;;;;;8.73;6.37;;;19.70;45.50;;;;;;5008257;28;20476;-60
2024/03/27 09:50:33;;;;;;;6.40;5.73;;;19.80;45.20;;;;;;5015029;28;20793;-60
2024/03/27 09:53:00;;;;;;;6.77;6.00;;;20.00;45.30;;;;;;5015418;28;20436;-59
2024/03/27 09:55:31;;;;;;;6.93;5.50;;;20.30;45.60;;;;;;5011891;28;20445;-59
2024/03/27 09:57:59;;;;;;;6.23;5.53;;;20.20;45.40;;;;;;5011118;28;20453;-58
2024/03/27 10:00:28;;;;;;;6.17;5.20;;;20.10;45.60;;;;;;5009009;28;20436;-56
2024/03/27 10:02:54;;;;;;;9.03;5.67;;;19.80;45.90;;;;;;5009715;28;20447;-59
2024/03/27 10:05:25;;;;;;;6.63;5.93;;;20.10;46.30;;;;;;5013693;28;20963;-59
2024/03/27 10:07:50;;;;;;;6.37;5.77;;;20.40;46.00;;;;;;5008923;28;20464;-59
2024/03/27 10:10:17;;;;;;;7.63;5.73;;;20.50;45.50;;;;;;5008190;28;20510;-58
2024/03/27 10:12:43;;;;;;;6.33;5.73;;;20.70;44.40;;;;;;5007558;28;21468;-59
2024/03/27 10:15:10;;;;;;;7.33;6.63;;;20.90;44.50;;;;;;5002751;28;20492;-59
2024/03/27 10:17:36;;;;;;;7.10;6.40;;;20.80;43.50;;;;;;5006863;28;20264;-60
2024/03/27 10:20:02;;;;;;;7.60;5.80;;;20.70;44.10;;;;;;5012794;28;20852;-56
2024/03/27 10:22:31;;;;;;;7.40;6.60;;;20.90;44.20;;;;;;5010152;28;20182;-60
2024/03/27 10:24:57;;;;;;;6.50;5.90;;;21.00;43.20;;;;;;5011322;28;20889;-58
2024/03/27 10:27:23;;;;;;;8.73;6.07;;;21.10;43.50;;;;;;5013547;28;20499;-60
2024/03/27 10:29:48;;;;;;;7.97;6.30;;;21.10;43.60;;;;;;5010304;28;20186;-58
2024/03/27 10:32:14;;;;;;;8.00;6.07;;;21.30;42.80;;;;;;5017693;28;20190;-59
2024/03/27 10:34:41;;;;;;;9.50;6.37;;;21.40;42.40;;;;;;5014921;28;20210;-59
2024/03/27 10:37:11;;;;;;;9.53;7.07;;;21.20;42.80;;;;;;5009414;28;20740;-59
2024/03/27 10:39:45;;;;;;;6.60;5.70;;;20.80;42.80;;;;;;5007676;28;20867;-59
2024/03/27 10:42:21;;;;;;;6.77;5.37;;;20.40;43.80;;;;;;5009545;28;20872;-60
2024/03/27 10:44:47;;;;;;;6.50;5.57;;;20.50;44.10;;;;;;5014006;28;20515;-58
2024/03/27 10:47:24;;;;;;;11.30;6.07;;;20.70;43.90;;;;;;5017824;28;20461;-59
2024/03/27 10:49:51;;;;;;;6.73;6.07;;;20.60;44.20;;;;;;5011175;28;20420;-57
2024/03/27 10:52:17;;;;;;;6.40;5.67;;;20.50;45.30;;;;;;5018442;28;20409;-58
2024/03/27 10:54:45;;;;;;;7.10;5.63;;;20.70;44.70;;;;;;5012736;28;20558;-59
2024/03/27 10:57:17;;;;;;;5.90;5.10;;;20.30;44.60;;;;;;5015908;28;20473;-59
2024/03/27 10:59:44;;;;;;;5.80;5.20;;;20.10;46.10;;;;;;5010258;28;20421;-59
2024/03/27 11:02:11;;;;;;;6.77;6.07;;;20.40;46.40;;;;;;5013855;28;20454;-59
2024/03/27 11:04:39;;;;;;;6.00;5.33;;;20.70;45.70;;;;;;5017134;28;20417;-59
2024/03/27 11:07:13;;;;;;;6.60;4.87;;;20.90;45.30;;;;;;5018823;28;20436;-58
2024/03/27 11:09:52;;;;;;;6.40;5.10;;;20.60;45.80;;;;;;5010970;28;20409;-59
2024/03/27 11:12:18;;;;;;;5.27;4.70;;;20.80;46.20;;;;;;5020006;28;20416;-58
2024/03/27 11:14:49;;;;;;;5.70;4.90;;;20.70;46.60;;;;;;5013614;28;20477;-59
2024/03/27 11:17:16;;;;;;;5.60;5.10;;;20.80;46.30;;;;;;5019595;28;20436;-59
2024/03/27 11:19:43;;;;;;;8.70;5.83;;;21.00;45.90;;;;;;5016608;28;20421;-58
2024/03/27 11:22:14;;;;;;;6.23;5.73;;;20.90;45.30;;;;;;5019122;28;20412;-58
2024/03/27 11:24:40;;;;;;;7.60;6.87;;;20.50;46.00;;;;;;5013969;28;20954;-59
2024/03/27 11:27:06;;;;;;;6.43;5.83;;;20.20;46.10;;;;;;5018638;28;20455;-59
2024/03/27 11:29:32;;;;;;;7.00;6.40;;;20.10;46.70;;;;;;5015537;28;20440;-58
2024/03/27 11:31:59;;;;;;;7.67;6.53;;;20.30;46.50;;;;;;5013319;28;20186;-59
2024/03/27 11:34:25;;;;;;;5.57;5.03;;;20.30;46.80;;;;;;5014891;28;20468;-59
2024/03/27 11:36:55;;;;;;;5.50;5.00;;;20.30;48.10;;;;;;5016852;28;20448;-59
2024/03/27 11:39:21;;;;;;;7.97;5.60;;;19.90;48.70;;;;;;5013421;28;20495;-59
2024/03/27 11:41:47;;;;;;;8.67;5.03;;;19.90;49.50;;;;;;5016904;28;20464;-59
2024/03/27 11:44:14;;;;;;;5.67;5.13;;;19.40;49.00;;;;;;5017501;28;20452;-59
2024/03/27 11:46:39;;;;;;;6.47;5.80;;;19.10;49.60;;;;;;5015318;28;20910;-59
2024/03/27 11:49:05;;;;;;;6.93;6.33;;;18.80;50.30;;;;;;5017091;28;20507;-59
2024/03/27 11:51:31;;;;;;;5.97;5.40;;;18.80;50.20;;;;;;5012782;28;20269;-58
2024/03/27 11:54:01;;;;;;;6.87;5.43;;;18.80;50.30;;;;;;5016232;28;20296;-58
2024/03/27 11:56:34;;;;;;;6.33;5.43;;;18.60;50.30;;;;;;5018000;28;20205;-56
2024/03/27 11:59:00;;;;;;;5.90;5.40;;;18.50;50.70;;;;;;5015562;28;20503;-59
2024/03/27 12:01:26;;;;;;;5.10;4.70;;;18.20;50.80;;;;;;5017560;28;20420;-59
2024/03/27 12:03:56;;;;;;;6.20;5.13;;;18.00;51.80;;;;;;5012896;28;20507;-59
2024/03/27 12:06:22;;;;;;;8.27;5.30;;;18.20;52.00;;;;;;5016274;28;20517;-59
2024/03/27 12:08:48;;;;;;;7.00;6.30;;;18.50;51.30;;;;;;5015346;28;20932;-59
2024/03/27 12:11:18;;;;;;;6.73;6.00;;;18.10;51.10;;;;;;5017426;28;20200;-59
2024/03/27 12:13:43;;;;;;;6.00;5.40;;;18.20;51.70;;;;;;5015518;28;20491;-59
2024/03/27 12:16:10;;;;;;;5.90;5.00;;;18.20;51.40;;;;;;5014852;28;20449;-56
2024/03/27 12:18:40;;;;;;;6.20;5.40;;;18.40;51.40;;;;;;5014214;28;20585;-59
2024/03/27 12:21:10;;;;;;;4.30;3.60;;;18.20;51.00;;;;;;5017589;28;20417;-59
2024/03/27 12:23:38;;;;;;;7.73;3.97;;;18.00;51.20;;;;;;5015857;28;20436;-60
2024/03/27 12:26:05;;;;;;;3.57;3.27;;;17.80;50.90;;;;;;5017028;28;20436;-58
2024/03/27 12:28:30;;;;;;;4.77;3.60;;;17.70;51.90;;;;;;5016321;28;20552;-58
2024/03/27 12:30:59;;;;;;;5.53;4.30;;;17.80;51.90;;;;;;5009572;28;20571;-58
2024/03/27 12:33:25;;;;;;;7.43;3.10;;;17.80;51.40;;;;;;5006654;28;20213;-56
2024/03/27 12:35:51;;;;;;;3.03;2.70;;;17.90;51.70;;;;;;5011920;28;20432;-60
2024/03/27 12:38:18;;;;;;;2.10;1.90;;;17.80;51.20;;;;;;5012137;28;20718;-59
2024/03/27 12:40:43;;;;;;;2.90;1.87;;;17.70;50.90;;;;;;5013197;28;20186;-58